Huvudsida
METAR-TAF:

METAR-TAF

Flygplatser :

Oljeplattform

Ekofisk, Norge

latitud: 56-33N, longitud: 003-15E, höjd: 3 m

Aktuellt väderrapport

Denna rapport gjordes för 39 minuter sedan, klockan 20:20 UTC
Vind 5 kt från syd/sydost
Temperatur 11°C
Fuktighet 94%
Tryck 1029 hPa
Sikt 10 km eller mer
Få moln på en höjd av 4500 ft

METAR: ENLE 292020Z 16005KT 9999 FEW045 11/10 Q1029 W11/S3

Tid: 22:59 (20:59 UTC)

Väderprognos

Denna rapport gjordes för 59 minuter sedan, klockan 20:00 UTC
Prognos gäller från 29 kl. 21 UTC till 30 kl. 06 UTC
Vind 8 kt från syd/sydost
Sikt 10 km eller mer
Spridda moln på en höjd av 4000 ft
Sannolikhet 30%
från 29 kl. 21 UTC till 30 kl. 06 UTC
Sikt: 0100 m
på en höjd av 100 ft
dimma
Blir
från 29 kl. 23 UTC till 30 kl. 02 UTC
Vind 10 kt från ost

TAF: ENLE 292000Z 2921/3006 16008KT 9999 SCT040 PROB30 2921/3006 0100 FG VV001 BECMG 2923/3002 10010KT

Aktuella väderrapporter och prognoser från 4000 flygplatser (METAR- och TAF-rapporter).

De tillgängliga stationerna syns som gula och röda prickar på kartan.

För musen över prickarna för att se namnen på stationerna.

Klicka sedan för att få väderrapporter och prognoser.

För att ändra kartan: Klicka på de gröna knapparna med ett svart kors på för att zooma in; den gröna knappen med ett streck på för att zooma ut; eller på de gröna pilarna för angränsande kartor.


METAR-TAF: